createdAt,value
2018-11-12T00:01:51.376Z,52.73
2018-11-12T00:04:22.485Z,53.30
2018-11-12T00:06:54.126Z,49.77
2018-11-12T00:09:25.273Z,50.60
2018-11-12T00:11:57.205Z,52.93
2018-11-12T00:14:28.785Z,50.23
2018-11-12T00:16:59.560Z,49.70
2018-11-12T00:19:30.675Z,52.17
2018-11-12T00:22:01.507Z,49.47
2018-11-12T00:24:32.722Z,47.87
2018-11-12T00:27:03.509Z,51.30
2018-11-12T00:29:34.907Z,54.73
2018-11-12T00:32:05.912Z,53.90
2018-11-12T00:34:38.088Z,50.83
2018-11-12T00:37:10.497Z,51.97
2018-11-12T00:39:42.192Z,50.80
2018-11-12T00:42:13.307Z,57.10
2018-11-12T00:44:44.605Z,56.47
2018-11-12T00:47:16.001Z,48.87
2018-11-12T00:49:47.189Z,48.47
2018-11-12T00:52:18.152Z,49.77
2018-11-12T00:54:49.673Z,47.93
2018-11-12T00:57:20.875Z,53.30
2018-11-12T00:59:52.875Z,50.17
2018-11-12T01:02:24.137Z,53.07
2018-11-12T01:04:55.093Z,50.23
2018-11-12T01:07:26.671Z,51.07
2018-11-12T01:09:57.962Z,49.40
2018-11-12T01:12:29.626Z,49.17
2018-11-12T01:15:01.155Z,48.27
2018-11-12T01:17:31.991Z,49.77
2018-11-12T01:20:03.975Z,49.30
2018-11-12T01:22:36.461Z,49.50
2018-11-12T01:25:08.889Z,47.80
2018-11-12T01:27:41.571Z,47.40
2018-11-12T01:30:14.968Z,47.53
2018-11-12T01:32:46.554Z,47.63
2018-11-12T01:35:19.492Z,47.37
2018-11-12T01:37:51.346Z,46.93
2018-11-12T01:40:22.966Z,46.70
2018-11-12T01:42:54.232Z,47.70
2018-11-12T01:45:26.416Z,45.97
2018-11-12T01:47:57.357Z,46.03
2018-11-12T01:50:28.901Z,48.83
2018-11-12T01:53:00.499Z,48.47
2018-11-12T01:55:31.838Z,48.70
2018-11-12T01:58:03.216Z,51.43
2018-11-12T02:00:34.916Z,47.90
2018-11-12T02:03:05.960Z,47.90
2018-11-12T02:05:36.718Z,50.10
2018-11-12T02:08:08.351Z,49.00
2018-11-12T02:10:39.194Z,52.97
2018-11-12T02:13:10.189Z,50.70
2018-11-12T02:15:41.039Z,51.47
2018-11-12T02:18:12.115Z,47.90
2018-11-12T02:20:43.480Z,43.43
2018-11-12T02:23:14.658Z,41.97
2018-11-12T02:25:45.509Z,47.23
2018-11-12T02:28:16.829Z,41.90
2018-11-12T02:30:49.152Z,45.17
2018-11-12T02:33:20.285Z,45.87
2018-11-12T02:35:52.035Z,45.93
2018-11-12T02:38:23.101Z,43.40
2018-11-12T02:40:55.634Z,45.27
2018-11-12T02:43:27.018Z,47.87
2018-11-12T02:45:58.195Z,45.57
2018-11-12T02:48:29.826Z,45.27
2018-11-12T02:51:00.999Z,42.87
2018-11-12T02:53:32.572Z,44.17
2018-11-12T02:56:03.559Z,46.07
2018-11-12T02:58:34.536Z,44.07
2018-11-12T03:01:06.074Z,44.03
2018-11-12T03:03:36.980Z,41.17
2018-11-12T03:06:08.008Z,42.80
2018-11-12T03:08:39.309Z,41.10
2018-11-12T03:11:10.421Z,41.63
2018-11-12T03:13:41.420Z,44.73
2018-11-12T03:16:13.212Z,45.30
2018-11-12T03:18:44.219Z,43.10
2018-11-12T03:21:15.232Z,50.40
2018-11-12T03:23:46.431Z,52.10
2018-11-12T03:26:17.717Z,45.63
2018-11-12T03:28:49.088Z,47.80
2018-11-12T03:31:20.673Z,42.93
2018-11-12T03:33:52.919Z,42.03
2018-11-12T03:36:23.813Z,41.40
2018-11-12T03:38:55.445Z,40.57
2018-11-12T03:41:27.006Z,40.60
2018-11-12T03:43:58.442Z,42.83
2018-11-12T03:46:29.594Z,43.27
2018-11-12T03:49:01.255Z,46.50
2018-11-12T03:51:33.339Z,46.30
2018-11-12T03:54:05.096Z,44.00
2018-11-12T03:56:35.859Z,41.30
2018-11-12T03:59:07.434Z,41.77
2018-11-12T04:01:44.488Z,41.97
2018-11-12T04:04:17.239Z,43.80
2018-11-12T04:06:49.192Z,41.37
2018-11-12T04:09:22.106Z,43.60
2018-11-12T04:11:52.935Z,43.10
2018-11-12T04:14:24.324Z,41.37
2018-11-12T04:16:54.989Z,41.97
2018-11-12T04:19:26.669Z,42.77
2018-11-12T04:21:57.233Z,43.60
2018-11-12T04:24:28.388Z,43.07
2018-11-12T04:27:00.683Z,45.20
2018-11-12T04:29:32.163Z,45.80
2018-11-12T04:32:03.547Z,42.00
2018-11-12T04:34:34.918Z,41.80
2018-11-12T04:37:05.679Z,41.73
2018-11-12T04:39:36.986Z,43.60
2018-11-12T04:42:08.474Z,43.63
2018-11-12T04:44:39.190Z,44.97
2018-11-12T04:47:10.635Z,45.70
2018-11-12T04:49:41.889Z,45.83
2018-11-12T04:52:13.177Z,46.07
2018-11-12T04:54:44.215Z,44.03
2018-11-12T04:57:14.557Z,46.10
2018-11-12T04:59:46.630Z,47.30
2018-11-12T05:02:17.792Z,45.20
2018-11-12T05:04:49.109Z,47.10
2018-11-12T05:07:20.210Z,45.63
2018-11-12T05:09:51.724Z,45.70
2018-11-12T05:12:23.559Z,47.07
2018-11-12T05:14:54.841Z,46.77
2018-11-12T05:17:25.672Z,47.10
2018-11-12T05:19:57.069Z,43.97
2018-11-12T05:22:27.696Z,47.10
2018-11-12T05:24:58.470Z,45.90
2018-11-12T05:27:29.409Z,46.50
2018-11-12T05:30:00.988Z,48.27
2018-11-12T05:32:32.508Z,47.60
2018-11-12T05:35:03.153Z,45.43
2018-11-12T05:37:34.702Z,47.87
2018-11-12T05:40:07.369Z,45.23
2018-11-12T05:42:38.422Z,47.50
2018-11-12T05:45:10.176Z,44.93
2018-11-12T05:47:42.726Z,47.27
2018-11-12T05:50:15.798Z,49.60
2018-11-12T05:52:48.689Z,53.50
2018-11-12T05:55:22.323Z,47.97
2018-11-12T05:57:53.834Z,51.40
2018-11-12T06:00:30.213Z,48.20
2018-11-12T06:03:01.314Z,46.43
2018-11-12T06:05:32.435Z,48.17
2018-11-12T06:08:03.831Z,47.70
2018-11-12T06:10:35.570Z,47.27
2018-11-12T06:13:07.174Z,44.87
2018-11-12T06:15:39.277Z,45.70
2018-11-12T06:18:10.249Z,44.97
2018-11-12T06:20:41.662Z,45.63
2018-11-12T06:23:12.985Z,45.03
2018-11-12T06:25:44.340Z,47.23
2018-11-12T06:28:16.048Z,44.97
2018-11-12T06:30:47.811Z,44.70
2018-11-12T06:33:19.764Z,48.93
2018-11-12T06:35:51.087Z,51.77
2018-11-12T06:38:22.352Z,48.23
2018-11-12T06:40:53.392Z,52.90
2018-11-12T06:43:24.948Z,52.90
2018-11-12T06:45:56.206Z,51.37
2018-11-12T06:48:27.740Z,51.67
2018-11-12T06:50:58.990Z,49.20
2018-11-12T06:53:29.511Z,45.70
2018-11-12T06:56:00.687Z,44.93
2018-11-12T06:58:32.112Z,42.40
2018-11-12T07:01:02.914Z,44.13
2018-11-12T07:03:33.319Z,45.30
2018-11-12T07:06:05.549Z,47.13
2018-11-12T07:08:35.829Z,43.63
2018-11-12T07:11:07.111Z,47.70
2018-11-12T07:13:38.264Z,45.57
2018-11-12T07:16:09.417Z,46.50
2018-11-12T07:18:40.535Z,44.77
2018-11-12T07:21:11.709Z,45.10
2018-11-12T07:23:42.720Z,46.00
2018-11-12T07:26:13.791Z,49.30
2018-11-12T07:28:45.218Z,47.97
2018-11-12T07:31:16.322Z,49.77
2018-11-12T07:33:47.431Z,49.53
2018-11-12T07:36:19.168Z,48.07
2018-11-12T07:38:49.873Z,48.27
2018-11-12T07:41:22.391Z,47.10
2018-11-12T07:43:53.989Z,47.20
2018-11-12T07:46:24.777Z,44.30
2018-11-12T07:48:55.565Z,46.40
2018-11-12T07:51:26.141Z,44.30
2018-11-12T07:53:57.315Z,44.40
2018-11-12T07:56:29.290Z,43.13
2018-11-12T07:59:00.990Z,46.30
2018-11-12T08:01:32.831Z,42.87
2018-11-12T08:04:04.518Z,39.50
2018-11-12T08:06:36.673Z,41.50
2018-11-12T08:09:10.484Z,38.63
2018-11-12T08:11:42.864Z,39.53
2018-11-12T08:14:14.446Z,38.03
2018-11-12T08:16:45.483Z,37.97
2018-11-12T08:19:17.464Z,39.07
2018-11-12T08:21:48.915Z,40.07
2018-11-12T08:24:20.569Z,39.87
2018-11-12T08:26:52.149Z,39.60
2018-11-12T08:29:22.997Z,37.20
2018-11-12T08:31:54.388Z,38.80
2018-11-12T08:34:26.193Z,37.10
2018-11-12T08:36:57.793Z,38.27
2018-11-12T08:39:28.814Z,37.87
2018-11-12T08:41:59.960Z,36.90
2018-11-12T08:44:30.668Z,38.67
2018-11-12T08:47:01.490Z,36.93
2018-11-12T08:49:32.897Z,35.90
2018-11-12T08:52:04.275Z,36.13
2018-11-12T08:54:35.157Z,35.47
2018-11-12T08:57:06.297Z,35.27
2018-11-12T08:59:37.738Z,32.50
2018-11-12T09:02:08.770Z,32.53
2018-11-12T09:04:40.276Z,32.10
2018-11-12T09:07:11.031Z,33.30
2018-11-12T09:09:41.892Z,32.07
2018-11-12T09:12:13.339Z,30.73
2018-11-12T09:14:44.912Z,33.47
2018-11-12T09:17:16.423Z,33.27
2018-11-12T09:19:48.286Z,32.63
2018-11-12T09:22:19.390Z,33.70
2018-11-12T09:24:50.291Z,33.73
2018-11-12T09:27:21.086Z,35.50
2018-11-12T09:29:53.004Z,35.17
2018-11-12T09:32:24.375Z,35.10
2018-11-12T09:34:57.097Z,34.60
2018-11-12T09:37:28.906Z,33.20
2018-11-12T09:40:00.233Z,31.77
2018-11-12T09:42:31.437Z,30.80
2018-11-12T09:45:03.205Z,31.03
2018-11-12T09:47:35.009Z,31.27
2018-11-12T09:50:06.283Z,31.60
2018-11-12T09:52:37.815Z,31.23
2018-11-12T09:55:10.662Z,30.37
2018-11-12T09:57:44.151Z,32.13
2018-11-12T10:00:16.901Z,30.70
2018-11-12T10:02:50.713Z,32.20
2018-11-12T10:05:22.288Z,31.40
2018-11-12T10:07:55.166Z,31.20
2018-11-12T10:11:01.333Z,31.70
2018-11-12T10:13:33.574Z,29.67
2018-11-12T10:16:05.357Z,31.07
2018-11-12T10:18:32.030Z,31.57
2018-11-12T10:21:03.093Z,31.80
2018-11-12T10:23:33.837Z,29.27
2018-11-12T10:26:05.067Z,28.37
2018-11-12T10:28:36.350Z,28.70
2018-11-12T10:31:07.933Z,27.20
2018-11-12T10:33:39.437Z,26.40
2018-11-12T10:36:10.954Z,25.20
2018-11-12T10:38:42.828Z,27.17
2018-11-12T10:41:14.499Z,30.17
2018-11-12T10:43:46.249Z,24.10
2018-11-12T10:46:17.753Z,23.63
2018-11-12T10:48:49.313Z,24.80
2018-11-12T10:51:21.004Z,24.37
2018-11-12T10:53:52.803Z,22.63
2018-11-12T10:56:25.322Z,24.27
2018-11-12T10:58:56.555Z,22.60
2018-11-12T11:01:37.037Z,21.93
2018-11-12T11:04:12.303Z,21.57
2018-11-12T11:06:44.781Z,22.60
2018-11-12T11:09:15.613Z,22.60
2018-11-12T11:11:50.738Z,22.73
2018-11-12T11:14:22.522Z,21.67
2018-11-12T11:16:55.324Z,20.13
2018-11-12T11:19:27.580Z,21.57
2018-11-12T11:21:59.756Z,20.70
2018-11-12T11:24:30.880Z,20.60
2018-11-12T11:27:03.360Z,20.63
2018-11-12T11:29:35.469Z,22.10
2018-11-12T11:32:06.976Z,21.93
2018-11-12T11:34:39.622Z,20.10
2018-11-12T11:37:11.317Z,21.47
2018-11-12T11:39:42.402Z,21.00
2018-11-12T11:42:14.050Z,21.10
2018-11-12T11:44:45.862Z,21.37
2018-11-12T11:47:19.242Z,22.20
2018-11-12T11:49:50.838Z,21.10
2018-11-12T11:52:22.071Z,19.53
2018-11-12T11:54:54.488Z,20.40
2018-11-12T11:57:25.688Z,21.53
2018-11-12T11:59:56.677Z,21.87
2018-11-12T12:02:28.952Z,20.17
2018-11-12T12:05:00.171Z,19.57
2018-11-12T12:07:30.450Z,19.80
2018-11-12T12:10:01.299Z,19.93
2018-11-12T12:12:35.632Z,20.30
2018-11-12T12:15:08.171Z,24.33
2018-11-12T12:17:41.305Z,23.83
2018-11-12T12:20:20.057Z,25.43
2018-11-12T12:22:51.529Z,26.73
2018-11-12T12:25:23.982Z,27.57
2018-11-12T12:27:55.361Z,26.87
2018-11-12T12:30:28.030Z,26.73
2018-11-12T12:32:59.754Z,25.37
2018-11-12T12:35:30.752Z,26.60
2018-11-12T12:38:01.748Z,27.07
2018-11-12T12:40:33.472Z,25.17
2018-11-12T12:43:04.932Z,27.30
2018-11-12T12:45:36.549Z,27.37
2018-11-12T12:48:08.217Z,25.85
2018-11-12T12:50:39.814Z,25.07
2018-11-12T12:53:12.054Z,26.23
2018-11-12T12:55:43.790Z,25.10
2018-11-12T12:58:15.158Z,28.13
2018-11-12T13:00:45.874Z,26.17
2018-11-12T13:03:25.183Z,28.73
2018-11-12T13:05:56.914Z,25.97
2018-11-12T13:08:27.550Z,27.67
2018-11-12T13:10:58.709Z,27.80
2018-11-12T13:13:29.381Z,25.40
2018-11-12T13:17:19.294Z,27.60
2018-11-12T13:19:50.959Z,26.43
2018-11-12T13:22:21.872Z,25.90
2018-11-12T13:24:52.828Z,26.20
2018-11-12T13:27:24.945Z,26.87
2018-11-12T13:29:56.010Z,27.40
2018-11-12T13:32:28.105Z,28.67
2018-11-12T13:34:59.749Z,25.93
2018-11-12T13:37:30.536Z,26.50
2018-11-12T13:40:01.655Z,27.27
2018-11-12T13:42:32.996Z,22.70
2018-11-12T13:45:04.215Z,22.30
2018-11-12T13:47:36.464Z,20.53
2018-11-12T13:50:12.269Z,22.57
2018-11-12T13:52:43.970Z,22.77
2018-11-12T13:55:15.974Z,22.67
2018-11-12T13:57:48.125Z,23.53
2018-11-12T14:00:21.301Z,23.83
2018-11-12T14:02:52.868Z,22.60
2018-11-12T14:05:25.124Z,21.80
2018-11-12T14:07:55.630Z,22.23
2018-11-12T14:10:28.211Z,21.80
2018-11-12T14:12:59.208Z,22.30
2018-11-12T14:15:30.864Z,21.00
2018-11-12T14:18:02.422Z,21.93
2018-11-12T14:20:34.281Z,21.10
2018-11-12T14:23:06.401Z,21.53
2018-11-12T14:25:37.895Z,23.43
2018-11-12T14:28:09.146Z,21.97
2018-11-12T14:30:41.870Z,22.30
2018-11-12T14:33:14.482Z,21.83
2018-11-12T14:35:46.160Z,22.10
2018-11-12T14:38:18.146Z,23.43
2018-11-12T14:40:51.357Z,22.53
2018-11-12T14:43:22.985Z,22.67
2018-11-12T14:45:54.455Z,28.97
2018-11-12T14:48:26.109Z,21.00
2018-11-12T14:50:57.831Z,21.63
2018-11-12T14:53:28.883Z,21.00
2018-11-12T14:56:00.145Z,20.50
2018-11-12T14:58:31.872Z,20.20
2018-11-12T15:01:03.063Z,22.40
2018-11-12T15:03:33.994Z,20.10
2018-11-12T15:06:04.489Z,21.87
2018-11-12T15:08:36.297Z,21.00
2018-11-12T15:11:07.896Z,19.87
2018-11-12T15:13:40.040Z,21.27
2018-11-12T15:16:11.462Z,19.50
2018-11-12T15:18:43.000Z,20.57
2018-11-12T15:21:14.048Z,19.73
2018-11-12T15:23:46.150Z,21.40
2018-11-12T15:26:17.413Z,22.90
2018-11-12T15:28:49.740Z,21.73
2018-11-12T15:31:21.173Z,21.40
2018-11-12T15:33:53.093Z,19.03
2018-11-12T15:36:25.790Z,20.63
2018-11-12T15:38:57.265Z,21.30
2018-11-12T15:41:28.767Z,20.43
2018-11-12T15:44:00.380Z,21.30
2018-11-12T15:46:32.723Z,21.50
2018-11-12T15:49:03.844Z,22.37
2018-11-12T15:51:35.268Z,22.10
2018-11-12T15:54:07.175Z,23.57
2018-11-12T15:56:39.363Z,23.37
2018-11-12T15:59:11.495Z,21.40
2018-11-12T16:01:43.531Z,23.60
2018-11-12T16:04:14.526Z,24.00
2018-11-12T16:06:46.253Z,21.50
2018-11-12T16:09:17.919Z,22.10
2018-11-12T16:11:50.078Z,22.13
2018-11-12T16:14:22.248Z,23.30
2018-11-12T16:16:54.356Z,21.60
2018-11-12T16:19:26.964Z,21.87
2018-11-12T16:21:58.726Z,22.07
2018-11-12T16:24:31.064Z,22.50
2018-11-12T16:27:01.521Z,23.13
2018-11-12T16:29:39.272Z,17.70
2018-11-12T16:32:12.089Z,20.97
2018-11-12T16:34:43.559Z,20.00
2018-11-12T16:37:14.831Z,21.60
2018-11-12T16:39:46.052Z,21.43
2018-11-12T16:42:17.716Z,23.57
2018-11-12T16:44:49.371Z,21.17
2018-11-12T16:47:21.609Z,22.53
2018-11-12T16:49:52.989Z,24.63
2018-11-12T16:52:24.780Z,25.30
2018-11-12T16:54:56.539Z,26.17
2018-11-12T16:57:27.960Z,24.23
2018-11-12T16:59:58.856Z,25.70
2018-11-12T17:02:30.132Z,24.73
2018-11-12T17:05:01.956Z,25.10
2018-11-12T17:07:32.789Z,26.50
2018-11-12T17:10:04.104Z,25.50
2018-11-12T17:12:35.928Z,25.17
2018-11-12T17:15:07.910Z,24.03
2018-11-12T17:17:39.400Z,22.47
2018-11-12T17:20:13.452Z,24.13
2018-11-12T17:22:44.648Z,24.40
2018-11-12T17:25:16.783Z,24.47
2018-11-12T17:27:48.509Z,24.20
2018-11-12T17:30:22.447Z,22.67
2018-11-12T17:32:54.284Z,24.43
2018-11-12T17:35:25.270Z,23.90
2018-11-12T17:37:56.850Z,25.17
2018-11-12T17:40:28.631Z,23.60
2018-11-12T17:42:59.430Z,30.77
2018-11-12T17:45:31.390Z,27.93
2018-11-12T17:48:02.392Z,26.70
2018-11-12T17:50:34.338Z,27.10
2018-11-12T17:53:06.270Z,28.10
2018-11-12T17:55:37.571Z,25.33
2018-11-12T17:58:09.416Z,26.67
2018-11-12T18:00:41.016Z,26.83
2018-11-12T18:03:12.632Z,24.40
2018-11-12T18:05:44.866Z,26.20
2018-11-12T18:08:16.685Z,27.30
2018-11-12T18:10:48.270Z,27.13
2018-11-12T18:13:18.890Z,28.13
2018-11-12T18:15:51.476Z,27.20
2018-11-12T18:18:22.676Z,27.30
2018-11-12T18:20:53.984Z,26.70
2018-11-12T18:23:25.125Z,29.07
2018-11-12T18:25:56.151Z,28.53
2018-11-12T18:28:27.292Z,27.53
2018-11-12T18:30:58.966Z,25.40
2018-11-12T18:33:30.334Z,28.10
2018-11-12T18:36:01.710Z,29.30
2018-11-12T18:38:32.698Z,29.47
2018-11-12T18:41:03.693Z,26.77
2018-11-12T18:43:35.657Z,28.60
2018-11-12T18:46:07.552Z,29.27
2018-11-12T18:48:39.069Z,29.37
2018-11-12T18:51:10.407Z,27.23
2018-11-12T18:53:41.752Z,30.77
2018-11-12T18:56:13.912Z,31.23
2018-11-12T18:58:45.628Z,28.83
2018-11-12T19:01:16.770Z,29.33
2018-11-12T19:03:47.987Z,32.00
2018-11-12T19:06:20.629Z,35.10
2018-11-12T19:08:52.984Z,33.67
2018-11-12T19:11:24.389Z,31.57
2018-11-12T19:13:55.904Z,32.87
2018-11-12T19:16:27.743Z,34.00
2018-11-12T19:18:58.711Z,33.57
2018-11-12T19:21:30.331Z,32.30
2018-11-12T19:24:01.750Z,30.80
2018-11-12T19:26:33.190Z,32.57
2018-11-12T19:29:05.745Z,32.40
2018-11-12T19:31:37.183Z,32.23
2018-11-12T19:34:08.691Z,32.87
2018-11-12T19:36:40.788Z,32.70
2018-11-12T19:39:12.824Z,32.47
2018-11-12T19:41:44.795Z,32.50
2018-11-12T19:44:17.734Z,33.47
2018-11-12T19:46:49.428Z,32.70
2018-11-12T19:49:21.192Z,33.30
2018-11-12T19:51:52.814Z,36.30
2018-11-12T19:54:25.019Z,35.90
2018-11-12T19:56:56.436Z,34.67
2018-11-12T19:59:28.201Z,32.53
2018-11-12T20:01:59.799Z,34.20
2018-11-12T20:04:32.077Z,33.67
2018-11-12T20:07:03.642Z,35.30
2018-11-12T20:09:35.190Z,33.90
2018-11-12T20:12:07.103Z,35.63
2018-11-12T20:14:38.955Z,34.57
2018-11-12T20:17:11.405Z,33.87
2018-11-12T20:19:42.810Z,37.23
2018-11-12T20:22:14.833Z,35.70
2018-11-12T20:24:47.798Z,36.37
2018-11-12T20:27:40.253Z,37.67
2018-11-12T20:30:16.200Z,34.83
2018-11-12T20:32:50.116Z,38.33
2018-11-12T20:35:22.993Z,35.67
2018-11-12T20:37:54.910Z,36.30
2018-11-12T20:40:26.952Z,36.50
2018-11-12T20:42:59.002Z,37.77
2018-11-12T20:45:31.225Z,38.20
2018-11-12T20:48:03.213Z,36.60
2018-11-12T20:50:35.581Z,38.10
2018-11-12T20:53:08.390Z,37.27
2018-11-12T20:55:43.584Z,59.70
2018-11-12T20:58:17.219Z,42.83
2018-11-12T21:00:51.817Z,44.73
2018-11-12T21:03:24.136Z,48.17
2018-11-12T21:05:57.360Z,45.73
2018-11-12T21:08:29.115Z,46.10
2018-11-12T21:11:00.509Z,43.53
2018-11-12T21:13:35.501Z,44.97
2018-11-12T21:16:09.429Z,41.63
2018-11-12T21:18:41.471Z,44.73
2018-11-12T21:21:13.797Z,39.60
2018-11-12T21:23:45.301Z,39.80
2018-11-12T21:26:19.270Z,42.37
2018-11-12T21:28:52.491Z,43.73
2018-11-12T21:31:24.950Z,43.00
2018-11-12T21:33:57.889Z,42.90
2018-11-12T21:36:30.607Z,76.90
2018-11-12T21:39:02.240Z,47.70
2018-11-12T21:41:34.750Z,56.83
2018-11-12T21:44:08.352Z,54.10
2018-11-12T21:46:42.968Z,45.87
2018-11-12T21:49:15.553Z,46.10
2018-11-12T21:51:48.397Z,43.17
2018-11-12T21:54:20.937Z,46.03
2018-11-12T21:56:53.030Z,69.37
2018-11-12T21:59:24.289Z,54.00
2018-11-12T22:01:58.252Z,43.03
2018-11-12T22:04:31.750Z,44.63
2018-11-12T22:07:03.446Z,41.57
2018-11-12T22:09:37.554Z,42.20
2018-11-12T22:12:09.026Z,42.77
2018-11-12T22:14:40.391Z,42.70
2018-11-12T22:17:13.490Z,42.17
2018-11-12T22:19:45.891Z,43.10
2018-11-12T22:22:17.858Z,44.57
2018-11-12T22:24:48.214Z,42.50
2018-11-12T22:27:19.271Z,42.83
2018-11-12T22:29:50.418Z,42.57
2018-11-12T22:32:21.921Z,42.57
2018-11-12T22:34:55.574Z,40.67
2018-11-12T22:37:26.791Z,46.47
2018-11-12T22:39:58.270Z,46.63
2018-11-12T22:42:30.009Z,45.50
2018-11-12T22:45:01.132Z,40.30
2018-11-12T22:47:32.608Z,44.20
2018-11-12T22:50:05.575Z,41.20
2018-11-12T22:52:37.025Z,48.70
2018-11-12T22:55:08.585Z,52.50
2018-11-12T22:57:40.351Z,45.30
2018-11-12T23:00:21.305Z,42.87
2018-11-12T23:02:52.725Z,44.17
2018-11-12T23:05:24.338Z,40.20
2018-11-12T23:07:56.486Z,43.63
2018-11-12T23:10:27.531Z,47.10
2018-11-12T23:12:58.153Z,46.70
2018-11-12T23:15:29.511Z,48.30
2018-11-12T23:18:00.378Z,47.47
2018-11-12T23:20:31.900Z,46.70
2018-11-12T23:23:02.911Z,46.20
2018-11-12T23:25:34.065Z,47.53
2018-11-12T23:28:05.256Z,47.10
2018-11-12T23:30:35.961Z,47.23
2018-11-12T23:33:09.070Z,46.73
2018-11-12T23:35:40.550Z,44.50
2018-11-12T23:38:11.338Z,47.23
2018-11-12T23:40:42.669Z,45.87
2018-11-12T23:43:13.675Z,49.57
2018-11-12T23:45:44.371Z,52.90
2018-11-12T23:48:17.625Z,50.40
2018-11-12T23:50:48.127Z,87.00
2018-11-12T23:53:19.365Z,63.10
2018-11-12T23:55:50.507Z,46.57
2018-11-12T23:58:21.669Z,50.13
